Arkansas City, Arkansas
Current Conditions -  °F | °C
As of 6:53 AM on Wednesday 22 Oct 2014 (Local Time) from KGLH Reporting Station
Clear Clear  
Wind Chill: 47°   Ceiling: Unl
Heat Index: 49°   Visibility: 10mi
Dew Point: 46°   Wind: 6mph
Humidity: 90%   Direction: 30°NNE
Pressure: 30.15"   Gusts: NA
Location:  33.61°N, 91.21°W
Report Text: KGLH 221153Z AUTO 03005KT 10SM CLR 09/08 A3015 RMK AO2 SLP216 T00940078 10133 20089 53017
Loading
Personal Weather Stations






























Interactive Weather Map
Tropical Storm Tracking
New forecast layout! Learn more

10-Day Weather Forecast

Advertisements
Track Severe Weather on mobile